sensor_id;sensor_type;location;lat;lon;timestamp;pressure;altitude;pressure_sealevel;temperature;humidity
13080;BME280;6606;49.154;9.280;2024-02-14T00:01:04;100114.88;;;1.91;100.00
13080;BME280;6606;49.154;9.280;2024-02-14T00:03:49;100109.69;;;1.88;100.00
13080;BME280;6606;49.154;9.280;2024-02-14T00:06:35;100113.25;;;1.81;100.00
13080;BME280;6606;49.154;9.280;2024-02-14T00:09:16;100114.13;;;1.79;100.00
13080;BME280;6606;49.154;9.280;2024-02-14T00:11:58;100115.84;;;1.82;100.00
13080;BME280;6606;49.154;9.280;2024-02-14T00:14:41;100116.63;;;1.89;100.00
13080;BME280;6606;49.154;9.280;2024-02-14T00:17:23;100112.22;;;1.92;100.00
13080;BME280;6606;49.154;9.280;2024-02-14T00:20:07;100104.25;;;2.00;100.00
13080;BME280;6606;49.154;9.280;2024-02-14T00:22:51;100113.78;;;2.06;100.00
13080;BME280;6606;49.154;9.280;2024-02-14T00:25:33;100120.06;;;1.94;100.00
13080;BME280;6606;49.154;9.280;2024-02-14T00:28:15;100122.66;;;1.95;100.00
13080;BME280;6606;49.154;9.280;2024-02-14T00:30:58;100126.97;;;1.98;100.00
13080;BME280;6606;49.154;9.280;2024-02-14T00:33:40;100134.19;;;1.81;100.00
13080;BME280;6606;49.154;9.280;2024-02-14T00:36:21;100129.06;;;1.71;100.00
13080;BME280;6606;49.154;9.280;2024-02-14T00:39:03;100129.00;;;1.77;100.00
13080;BME280;6606;49.154;9.280;2024-02-14T00:41:46;100126.41;;;1.76;100.00
13080;BME280;6606;49.154;9.280;2024-02-14T00:44:28;100129.06;;;1.74;100.00
13080;BME280;6606;49.154;9.280;2024-02-14T00:47:11;100130.03;;;1.64;100.00
13080;BME280;6606;49.154;9.280;2024-02-14T00:49:52;100136.16;;;1.63;100.00
13080;BME280;6606;49.154;9.280;2024-02-14T00:52:34;100137.03;;;1.61;100.00
13080;BME280;6606;49.154;9.280;2024-02-14T00:55:16;100132.75;;;1.56;100.00
13080;BME280;6606;49.154;9.280;2024-02-14T00:57:57;100126.75;;;1.47;100.00
13080;BME280;6606;49.154;9.280;2024-02-14T01:00:39;100134.56;;;1.50;100.00
13080;BME280;6606;49.154;9.280;2024-02-14T01:03:22;100134.50;;;1.56;100.00
13080;BME280;6606;49.154;9.280;2024-02-14T01:06:04;100133.69;;;1.49;100.00
13080;BME280;6606;49.154;9.280;2024-02-14T01:08:45;100132.72;;;1.58;100.00
13080;BME280;6606;49.154;9.280;2024-02-14T01:11:27;100125.72;;;1.60;100.00
13080;BME280;6606;49.154;9.280;2024-02-14T01:14:09;100131.78;;;1.64;100.00
13080;BME280;6606;49.154;9.280;2024-02-14T01:16:52;100134.22;;;1.79;100.00
13080;BME280;6606;49.154;9.280;2024-02-14T01:19:36;100130.63;;;1.88;100.00
13080;BME280;6606;49.154;9.280;2024-02-14T01:22:18;100125.16;;;2.03;100.00
13080;BME280;6606;49.154;9.280;2024-02-14T01:24:59;100121.53;;;2.13;100.00
13080;BME280;6606;49.154;9.280;2024-02-14T01:27:41;100121.34;;;2.27;100.00
13080;BME280;6606;49.154;9.280;2024-02-14T01:30:23;100118.53;;;2.41;100.00
13080;BME280;6606;49.154;9.280;2024-02-14T01:33:05;100113.03;;;2.58;100.00
13080;BME280;6606;49.154;9.280;2024-02-14T01:35:48;100117.22;;;2.70;100.00
13080;BME280;6606;49.154;9.280;2024-02-14T01:38:30;100110.94;;;2.78;100.00
13080;BME280;6606;49.154;9.280;2024-02-14T01:41:14;100116.63;;;3.03;100.00
13080;BME280;6606;49.154;9.280;2024-02-14T01:43:55;100108.50;;;3.17;100.00
13080;BME280;6606;49.154;9.280;2024-02-14T01:46:39;100098.56;;;3.35;100.00
13080;BME280;6606;49.154;9.280;2024-02-14T01:49:21;100102.53;;;3.55;100.00
13080;BME280;6606;49.154;9.280;2024-02-14T01:52:05;100106.63;;;3.70;100.00
13080;BME280;6606;49.154;9.280;2024-02-14T01:54:47;100097.69;;;3.77;100.00
13080;BME280;6606;49.154;9.280;2024-02-14T01:57:29;100098.28;;;3.92;100.00
13080;BME280;6606;49.154;9.280;2024-02-14T02:00:12;100102.38;;;4.04;100.00
13080;BME280;6606;49.154;9.280;2024-02-14T02:02:56;100098.53;;;4.20;100.00
13080;BME280;6606;49.154;9.280;2024-02-14T02:05:38;100092.06;;;4.35;100.00
13080;BME280;6606;49.154;9.280;2024-02-14T02:08:21;100094.34;;;4.49;100.00
13080;BME280;6606;49.154;9.280;2024-02-14T02:11:03;100096.28;;;4.42;100.00
13080;BME280;6606;49.154;9.280;2024-02-14T02:13:46;100089.00;;;4.52;100.00
13080;BME280;6606;49.154;9.280;2024-02-14T02:16:28;100073.72;;;4.69;100.00
13080;BME280;6606;49.154;9.280;2024-02-14T02:19:10;100078.88;;;4.74;100.00
13080;BME280;6606;49.154;9.280;2024-02-14T02:21:51;100076.09;;;4.80;100.00
13080;BME280;6606;49.154;9.280;2024-02-14T02:24:35;100083.03;;;4.82;100.00
13080;BME280;6606;49.154;9.280;2024-02-14T02:27:16;100080.13;;;4.93;100.00
13080;BME280;6606;49.154;9.280;2024-02-14T02:29:58;100082.44;;;4.71;100.00
13080;BME280;6606;49.154;9.280;2024-02-14T02:32:41;100070.78;;;4.81;100.00
13080;BME280;6606;49.154;9.280;2024-02-14T02:35:23;100068.78;;;4.91;100.00
13080;BME280;6606;49.154;9.280;2024-02-14T02:38:06;100063.47;;;4.93;100.00
13080;BME280;6606;49.154;9.280;2024-02-14T02:40:49;100061.31;;;5.08;100.00
13080;BME280;6606;49.154;9.280;2024-02-14T02:43:31;100071.53;;;5.19;100.00
13080;BME280;6606;49.154;9.280;2024-02-14T02:46:13;100061.69;;;5.26;100.00
13080;BME280;6606;49.154;9.280;2024-02-14T02:48:55;100063.69;;;5.18;100.00
13080;BME280;6606;49.154;9.280;2024-02-14T02:51:37;100059.03;;;5.27;100.00
13080;BME280;6606;49.154;9.280;2024-02-14T02:54:19;100057.78;;;5.41;100.00
13080;BME280;6606;49.154;9.280;2024-02-14T02:57:02;100051.03;;;5.30;100.00
13080;BME280;6606;49.154;9.280;2024-02-14T02:59:45;100051.53;;;5.45;100.00
13080;BME280;6606;49.154;9.280;2024-02-14T03:02:28;100050.28;;;5.58;100.00
13080;BME280;6606;49.154;9.280;2024-02-14T03:05:10;100038.81;;;5.59;100.00
13080;BME280;6606;49.154;9.280;2024-02-14T03:07:57;100032.84;;;5.52;100.00
13080;BME280;6606;49.154;9.280;2024-02-14T03:10:40;100037.25;;;5.52;100.00
13080;BME280;6606;49.154;9.280;2024-02-14T03:13:23;100030.94;;;5.58;100.00
13080;BME280;6606;49.154;9.280;2024-02-14T03:16:05;100044.19;;;5.56;100.00
13080;BME280;6606;49.154;9.280;2024-02-14T03:18:46;100036.16;;;5.61;100.00
13080;BME280;6606;49.154;9.280;2024-02-14T03:21:28;100043.16;;;5.60;100.00
13080;BME280;6606;49.154;9.280;2024-02-14T03:24:12;100051.00;;;5.63;100.00
13080;BME280;6606;49.154;9.280;2024-02-14T03:26:54;100045.94;;;5.85;100.00
13080;BME280;6606;49.154;9.280;2024-02-14T03:29:37;100057.25;;;5.89;100.00
13080;BME280;6606;49.154;9.280;2024-02-14T03:32:20;100058.19;;;5.86;100.00
13080;BME280;6606;49.154;9.280;2024-02-14T03:35:04;100060.00;;;5.84;100.00
13080;BME280;6606;49.154;9.280;2024-02-14T03:37:46;100057.63;;;5.77;100.00
13080;BME280;6606;49.154;9.280;2024-02-14T03:40:29;100060.91;;;5.85;100.00
13080;BME280;6606;49.154;9.280;2024-02-14T03:43:11;100053.97;;;5.81;100.00
13080;BME280;6606;49.154;9.280;2024-02-14T03:45:54;100064.56;;;5.79;100.00
13080;BME280;6606;49.154;9.280;2024-02-14T03:48:36;100064.50;;;5.82;100.00
13080;BME280;6606;49.154;9.280;2024-02-14T03:51:18;100077.25;;;5.96;100.00
13080;BME280;6606;49.154;9.280;2024-02-14T03:54:00;100074.53;;;5.99;100.00
13080;BME280;6606;49.154;9.280;2024-02-14T03:56:41;100067.22;;;6.07;100.00
13080;BME280;6606;49.154;9.280;2024-02-14T03:59:23;100065.31;;;6.12;100.00
13080;BME280;6606;49.154;9.280;2024-02-14T04:02:06;100069.78;;;6.10;100.00
13080;BME280;6606;49.154;9.280;2024-02-14T04:04:50;100070.41;;;6.18;100.00
13080;BME280;6606;49.154;9.280;2024-02-14T04:07:31;100065.91;;;6.22;100.00
13080;BME280;6606;49.154;9.280;2024-02-14T04:10:14;100071.66;;;6.35;100.00
13080;BME280;6606;49.154;9.280;2024-02-14T04:12:56;100066.38;;;6.35;100.00
13080;BME280;6606;49.154;9.280;2024-02-14T04:15:38;100080.56;;;6.31;100.00
13080;BME280;6606;49.154;9.280;2024-02-14T04:18:21;100081.28;;;6.36;100.00
13080;BME280;6606;49.154;9.280;2024-02-14T04:21:03;100076.94;;;6.35;100.00
13080;BME280;6606;49.154;9.280;2024-02-14T04:23:45;100069.09;;;6.32;100.00
13080;BME280;6606;49.154;9.280;2024-02-14T04:26:27;100070.03;;;6.31;100.00
13080;BME280;6606;49.154;9.280;2024-02-14T04:29:09;100079.50;;;6.36;100.00
13080;BME280;6606;49.154;9.280;2024-02-14T04:31:51;100084.44;;;6.47;100.00
13080;BME280;6606;49.154;9.280;2024-02-14T04:34:35;100082.00;;;6.41;100.00
13080;BME280;6606;49.154;9.280;2024-02-14T04:37:19;100082.47;;;6.27;100.00
13080;BME280;6606;49.154;9.280;2024-02-14T04:40:01;100090.06;;;6.36;100.00
13080;BME280;6606;49.154;9.280;2024-02-14T04:42:44;100079.41;;;6.39;100.00
13080;BME280;6606;49.154;9.280;2024-02-14T04:45:26;100098.03;;;6.35;100.00
13080;BME280;6606;49.154;9.280;2024-02-14T04:48:07;100095.41;;;6.35;100.00
13080;BME280;6606;49.154;9.280;2024-02-14T04:50:50;100094.47;;;6.36;100.00
13080;BME280;6606;49.154;9.280;2024-02-14T04:53:33;100076.53;;;6.47;100.00
13080;BME280;6606;49.154;9.280;2024-02-14T04:56:14;100080.19;;;6.43;100.00
13080;BME280;6606;49.154;9.280;2024-02-14T04:58:56;100075.81;;;6.42;100.00
13080;BME280;6606;49.154;9.280;2024-02-14T05:01:38;100083.72;;;6.42;100.00
13080;BME280;6606;49.154;9.280;2024-02-14T05:04:21;100083.81;;;6.39;100.00
13080;BME280;6606;49.154;9.280;2024-02-14T05:07:04;100076.75;;;6.41;100.00
13080;BME280;6606;49.154;9.280;2024-02-14T05:09:47;100072.31;;;6.41;100.00
13080;BME280;6606;49.154;9.280;2024-02-14T05:12:30;100071.56;;;6.38;100.00
13080;BME280;6606;49.154;9.280;2024-02-14T05:15:12;100085.75;;;6.34;100.00
13080;BME280;6606;49.154;9.280;2024-02-14T05:17:54;100088.38;;;6.34;100.00
13080;BME280;6606;49.154;9.280;2024-02-14T05:20:36;100091.41;;;6.50;100.00
13080;BME280;6606;49.154;9.280;2024-02-14T05:23:26;100081.53;;;6.56;100.00
13080;BME280;6606;49.154;9.280;2024-02-14T05:26:08;100092.06;;;6.56;100.00
13080;BME280;6606;49.154;9.280;2024-02-14T05:28:50;100084.88;;;6.61;100.00
13080;BME280;6606;49.154;9.280;2024-02-14T05:31:43;100094.50;;;6.62;100.00
13080;BME280;6606;49.154;9.280;2024-02-14T05:34:25;100085.88;;;6.57;100.00
13080;BME280;6606;49.154;9.280;2024-02-14T05:37:06;100087.41;;;6.65;100.00
13080;BME280;6606;49.154;9.280;2024-02-14T05:39:50;100085.88;;;6.57;100.00
13080;BME280;6606;49.154;9.280;2024-02-14T05:42:31;100084.88;;;6.61;100.00
13080;BME280;6606;49.154;9.280;2024-02-14T05:45:14;100079.59;;;6.61;100.00
13080;BME280;6606;49.154;9.280;2024-02-14T05:47:56;100074.41;;;6.58;100.00
13080;BME280;6606;49.154;9.280;2024-02-14T05:50:40;100078.72;;;6.61;100.00
13080;BME280;6606;49.154;9.280;2024-02-14T05:53:21;100088.31;;;6.63;100.00
13080;BME280;6606;49.154;9.280;2024-02-14T05:56:06;100081.78;;;6.75;100.00
13080;BME280;6606;49.154;9.280;2024-02-14T05:58:47;100076.78;;;6.66;100.00
13080;BME280;6606;49.154;9.280;2024-02-14T06:01:29;100083.56;;;6.75;100.00
13080;BME280;6606;49.154;9.280;2024-02-14T06:04:17;100074.59;;;6.79;100.00
13080;BME280;6606;49.154;9.280;2024-02-14T06:06:58;100080.91;;;6.75;100.00
13080;BME280;6606;49.154;9.280;2024-02-14T06:09:40;100080.91;;;6.75;100.00
13080;BME280;6606;49.154;9.280;2024-02-14T06:12:23;100084.19;;;6.81;100.00
13080;BME280;6606;49.154;9.280;2024-02-14T06:15:06;100079.00;;;6.80;100.00
13080;BME280;6606;49.154;9.280;2024-02-14T06:17:48;100073.72;;;6.80;100.00
13080;BME280;6606;49.154;9.280;2024-02-14T06:20:29;100068.31;;;6.83;100.00
13080;BME280;6606;49.154;9.280;2024-02-14T06:23:11;100085.88;;;6.84;100.00
13080;BME280;6606;49.154;9.280;2024-02-14T06:25:53;100075.63;;;6.75;100.00
13080;BME280;6606;49.154;9.280;2024-02-14T06:28:36;100072.19;;;6.73;100.00
13080;BME280;6606;49.154;9.280;2024-02-14T06:31:17;100080.81;;;6.78;100.00
13080;BME280;6606;49.154;9.280;2024-02-14T06:33:59;100090.94;;;6.90;100.00
13080;BME280;6606;49.154;9.280;2024-02-14T06:36:41;100105.94;;;6.90;100.00
13080;BME280;6606;49.154;9.280;2024-02-14T06:39:22;100101.34;;;6.95;100.00
13080;BME280;6606;49.154;9.280;2024-02-14T06:42:04;100104.66;;;7.01;100.00
13080;BME280;6606;49.154;9.280;2024-02-14T06:44:47;100114.31;;;7.02;100.00
13080;BME280;6606;49.154;9.280;2024-02-14T06:47:30;100115.00;;;7.07;100.00
13080;BME280;6606;49.154;9.280;2024-02-14T06:50:11;100118.44;;;7.11;100.00
13080;BME280;6606;49.154;9.280;2024-02-14T06:52:53;100123.56;;;7.16;100.00
13080;BME280;6606;49.154;9.280;2024-02-14T06:55:34;100116.13;;;7.27;100.00
13080;BME280;6606;49.154;9.280;2024-02-14T06:58:16;100120.03;;;7.17;100.00
13080;BME280;6606;49.154;9.280;2024-02-14T07:00:59;100123.69;;;7.13;100.00
13080;BME280;6606;49.154;9.280;2024-02-14T07:03:41;100118.16;;;7.19;100.00
13080;BME280;6606;49.154;9.280;2024-02-14T07:06:22;100128.75;;;7.19;100.00
13080;BME280;6606;49.154;9.280;2024-02-14T07:09:04;100123.03;;;7.31;100.00
13080;BME280;6606;49.154;9.280;2024-02-14T07:11:46;100131.56;;;7.39;100.00
13080;BME280;6606;49.154;9.280;2024-02-14T07:14:35;100135.44;;;7.29;100.00
13080;BME280;6606;49.154;9.280;2024-02-14T07:17:18;100141.84;;;7.22;100.00
13080;BME280;6606;49.154;9.280;2024-02-14T07:20:00;100135.22;;;7.35;100.00
13080;BME280;6606;49.154;9.280;2024-02-14T07:22:42;100146.56;;;7.39;100.00
13080;BME280;6606;49.154;9.280;2024-02-14T07:25:26;100145.00;;;7.33;100.00
13080;BME280;6606;49.154;9.280;2024-02-14T07:28:08;100142.66;;;7.24;100.00
13080;BME280;6606;49.154;9.280;2024-02-14T07:30:49;100147.41;;;7.39;100.00
13080;BME280;6606;49.154;9.280;2024-02-14T07:33:32;100147.47;;;7.38;100.00
13080;BME280;6606;49.154;9.280;2024-02-14T07:36:14;100143.53;;;7.49;100.00
13080;BME280;6606;49.154;9.280;2024-02-14T07:38:56;100141.72;;;7.52;100.00
13080;BME280;6606;49.154;9.280;2024-02-14T07:41:38;100146.09;;;7.51;100.00
13080;BME280;6606;49.154;9.280;2024-02-14T07:44:26;100147.94;;;7.74;100.00
13080;BME280;6606;49.154;9.280;2024-02-14T07:47:07;100147.97;;;7.98;100.00
13080;BME280;6606;49.154;9.280;2024-02-14T07:49:50;100161.63;;;8.09;100.00
13080;BME280;6606;49.154;9.280;2024-02-14T07:52:33;100158.41;;;8.24;100.00
13080;BME280;6606;49.154;9.280;2024-02-14T07:55:18;100172.69;;;8.20;100.00
13080;BME280;6606;49.154;9.280;2024-02-14T07:58:00;100184.75;;;8.27;100.00
13080;BME280;6606;49.154;9.280;2024-02-14T08:00:42;100166.94;;;8.32;100.00
13080;BME280;6606;49.154;9.280;2024-02-14T08:03:23;100168.53;;;8.36;100.00
13080;BME280;6606;49.154;9.280;2024-02-14T08:06:07;100173.59;;;8.43;100.00
13080;BME280;6606;49.154;9.280;2024-02-14T08:08:50;100163.84;;;8.43;100.00
13080;BME280;6606;49.154;9.280;2024-02-14T08:11:37;100163.31;;;8.57;100.00
13080;BME280;6606;49.154;9.280;2024-02-14T08:14:19;100154.03;;;8.69;100.00
13080;BME280;6606;49.154;9.280;2024-02-14T08:17:00;100160.44;;;8.85;100.00
13080;BME280;6606;49.154;9.280;2024-02-14T08:19:42;100162.44;;;9.02;100.00
13080;BME280;6606;49.154;9.280;2024-02-14T08:22:25;100170.94;;;9.10;100.00
13080;BME280;6606;49.154;9.280;2024-02-14T08:25:08;100164.31;;;9.41;100.00
13080;BME280;6606;49.154;9.280;2024-02-14T08:27:50;100153.56;;;9.44;100.00
13080;BME280;6606;49.154;9.280;2024-02-14T08:30:32;100163.56;;;9.78;100.00
13080;BME280;6606;49.154;9.280;2024-02-14T08:33:22;100165.81;;;10.08;100.00
13080;BME280;6606;49.154;9.280;2024-02-14T08:36:05;100164.31;;;10.40;100.00
13080;BME280;6606;49.154;9.280;2024-02-14T08:38:48;100166.88;;;10.23;100.00
13080;BME280;6606;49.154;9.280;2024-02-14T08:41:30;100161.06;;;10.33;100.00
13080;BME280;6606;49.154;9.280;2024-02-14T08:44:11;100169.06;;;9.94;100.00
13080;BME280;6606;49.154;9.280;2024-02-14T08:46:53;100159.56;;;9.88;100.00
13080;BME280;6606;49.154;9.280;2024-02-14T08:49:35;100165.69;;;9.70;100.00
13080;BME280;6606;49.154;9.280;2024-02-14T08:52:17;100167.97;;;9.59;100.00
13080;BME280;6606;49.154;9.280;2024-02-14T08:55:00;100165.31;;;9.59;100.00
13080;BME280;6606;49.154;9.280;2024-02-14T08:57:42;100162.47;;;9.63;100.00
13080;BME280;6606;49.154;9.280;2024-02-14T09:00:25;100160.72;;;9.62;100.00
13080;BME280;6606;49.154;9.280;2024-02-14T09:03:07;100165.47;;;9.76;100.00
13080;BME280;6606;49.154;9.280;2024-02-14T09:05:49;100169.75;;;9.79;100.00
13080;BME280;6606;49.154;9.280;2024-02-14T09:08:31;100170.50;;;10.01;100.00
13080;BME280;6606;49.154;9.280;2024-02-14T09:11:14;100168.84;;;9.99;100.00
13080;BME280;6606;49.154;9.280;2024-02-14T09:13:58;100182.47;;;9.70;100.00
13080;BME280;6606;49.154;9.280;2024-02-14T09:16:45;100178.50;;;9.81;100.00
13080;BME280;6606;49.154;9.280;2024-02-14T09:19:26;100171.31;;;10.03;100.00
13080;BME280;6606;49.154;9.280;2024-02-14T09:22:08;100174.13;;;10.19;100.00
13080;BME280;6606;49.154;9.280;2024-02-14T09:24:50;100165.06;;;10.42;100.00
13080;BME280;6606;49.154;9.280;2024-02-14T09:27:34;100171.63;;;10.35;100.00
13080;BME280;6606;49.154;9.280;2024-02-14T09:30:16;100175.97;;;10.74;100.00
13080;BME280;6606;49.154;9.280;2024-02-14T09:32:58;100167.53;;;10.66;100.00
13080;BME280;6606;49.154;9.280;2024-02-14T09:35:40;100175.28;;;10.51;100.00
13080;BME280;6606;49.154;9.280;2024-02-14T09:38:24;100161.03;;;10.90;100.00
13080;BME280;6606;49.154;9.280;2024-02-14T09:41:13;100168.88;;;11.11;100.00
13080;BME280;6606;49.154;9.280;2024-02-14T09:43:58;100168.91;;;11.45;100.00
13080;BME280;6606;49.154;9.280;2024-02-14T09:46:41;100170.69;;;11.45;100.00
13080;BME280;6606;49.154;9.280;2024-02-14T09:49:23;100173.03;;;11.34;100.00
13080;BME280;6606;49.154;9.280;2024-02-14T09:52:08;100168.59;;;11.52;100.00
13080;BME280;6606;49.154;9.280;2024-02-14T09:54:52;100159.97;;;11.46;100.00
13080;BME280;6606;49.154;9.280;2024-02-14T09:57:34;100170.63;;;11.46;100.00
13080;BME280;6606;49.154;9.280;2024-02-14T10:00:19;100163.09;;;11.37;100.00
13080;BME280;6606;49.154;9.280;2024-02-14T10:03:02;100162.50;;;11.32;100.00
13080;BME280;6606;49.154;9.280;2024-02-14T10:05:44;100152.03;;;11.80;100.00
13080;BME280;6606;49.154;9.280;2024-02-14T10:08:26;100158.97;;;12.00;100.00
13080;BME280;6606;49.154;9.280;2024-02-14T10:11:08;100161.75;;;12.14;100.00
13080;BME280;6606;49.154;9.280;2024-02-14T10:13:51;100161.59;;;12.17;100.00
13080;BME280;6606;49.154;9.280;2024-02-14T10:16:35;100152.50;;;12.21;100.00
13080;BME280;6606;49.154;9.280;2024-02-14T10:19:18;100156.13;;;12.52;100.00
13080;BME280;6606;49.154;9.280;2024-02-14T10:22:00;100154.06;;;12.73;100.00
13080;BME280;6606;49.154;9.280;2024-02-14T10:24:46;100154.16;;;12.71;98.15
13080;BME280;6606;49.154;9.280;2024-02-14T10:27:27;100156.25;;;13.12;98.74
13080;BME280;6606;49.154;9.280;2024-02-14T10:30:10;100154.75;;;12.61;100.00
13080;BME280;6606;49.154;9.280;2024-02-14T10:32:53;100159.63;;;13.00;100.00
13080;BME280;6606;49.154;9.280;2024-02-14T10:35:35;100161.03;;;12.91;100.00
13080;BME280;6606;49.154;9.280;2024-02-14T10:38:19;100159.66;;;13.14;99.67
13080;BME280;6606;49.154;9.280;2024-02-14T10:41:02;100164.66;;;13.20;96.38
13080;BME280;6606;49.154;9.280;2024-02-14T10:43:44;100165.00;;;13.14;97.16
13080;BME280;6606;49.154;9.280;2024-02-14T10:46:26;100161.88;;;13.22;96.78
13080;BME280;6606;49.154;9.280;2024-02-14T10:49:14;100162.28;;;13.00;98.51
13080;BME280;6606;49.154;9.280;2024-02-14T10:51:58;100170.97;;;12.88;100.00
13080;BME280;6606;49.154;9.280;2024-02-14T10:54:43;100169.63;;;12.65;100.00
13080;BME280;6606;49.154;9.280;2024-02-14T10:57:30;100174.16;;;12.94;100.00
13080;BME280;6606;49.154;9.280;2024-02-14T11:00:15;100171.03;;;13.34;100.00
13080;BME280;6606;49.154;9.280;2024-02-14T11:02:59;100163.66;;;13.07;100.00
13080;BME280;6606;49.154;9.280;2024-02-14T11:05:47;100179.81;;;13.04;100.00
13080;BME280;6606;49.154;9.280;2024-02-14T11:08:29;100167.78;;;12.97;100.00
13080;BME280;6606;49.154;9.280;2024-02-14T11:11:13;100186.91;;;12.89;100.00
13080;BME280;6606;49.154;9.280;2024-02-14T11:13:55;100187.41;;;12.80;100.00
13080;BME280;6606;49.154;9.280;2024-02-14T11:16:38;100170.88;;;13.05;100.00
13080;BME280;6606;49.154;9.280;2024-02-14T11:19:30;100173.81;;;12.85;100.00
13080;BME280;6606;49.154;9.280;2024-02-14T11:22:18;100169.53;;;12.82;100.00
13080;BME280;6606;49.154;9.280;2024-02-14T11:25:06;100182.59;;;12.87;100.00
13080;BME280;6606;49.154;9.280;2024-02-14T11:27:48;100181.47;;;12.59;100.00
13080;BME280;6606;49.154;9.280;2024-02-14T11:30:30;100192.75;;;12.64;100.00
13080;BME280;6606;49.154;9.280;2024-02-14T11:33:16;100194.38;;;12.51;100.00
13080;BME280;6606;49.154;9.280;2024-02-14T11:36:07;100190.34;;;12.44;100.00
13080;BME280;6606;49.154;9.280;2024-02-14T11:38:51;100197.47;;;12.59;100.00
13080;BME280;6606;49.154;9.280;2024-02-14T11:41:35;100200.72;;;12.64;100.00
13080;BME280;6606;49.154;9.280;2024-02-14T11:44:19;100205.28;;;12.30;100.00
13080;BME280;6606;49.154;9.280;2024-02-14T11:47:02;100199.78;;;12.49;100.00
13080;BME280;6606;49.154;9.280;2024-02-14T11:49:45;100202.00;;;12.25;100.00
13080;BME280;6606;49.154;9.280;2024-02-14T11:52:27;100210.38;;;11.67;100.00
13080;BME280;6606;49.154;9.280;2024-02-14T11:55:11;100199.22;;;11.76;100.00
13080;BME280;6606;49.154;9.280;2024-02-14T11:57:55;100194.91;;;11.91;100.00
13080;BME280;6606;49.154;9.280;2024-02-14T12:00:37;100193.94;;;11.59;100.00
13080;BME280;6606;49.154;9.280;2024-02-14T12:03:22;100203.31;;;11.66;100.00
13080;BME280;6606;49.154;9.280;2024-02-14T12:06:04;100194.56;;;11.64;100.00
13080;BME280;6606;49.154;9.280;2024-02-14T12:08:46;100196.91;;;11.70;100.00
13080;BME280;6606;49.154;9.280;2024-02-14T12:11:29;100197.84;;;11.52;100.00
13080;BME280;6606;49.154;9.280;2024-02-14T12:14:11;100187.41;;;11.82;100.00
13080;BME280;6606;49.154;9.280;2024-02-14T12:16:56;100184.88;;;12.29;100.00
13080;BME280;6606;49.154;9.280;2024-02-14T12:19:38;100184.47;;;12.37;100.00
13080;BME280;6606;49.154;9.280;2024-02-14T12:22:21;100177.78;;;12.77;100.00
13080;BME280;6606;49.154;9.280;2024-02-14T12:25:03;100177.88;;;13.38;100.00
13080;BME280;6606;49.154;9.280;2024-02-14T12:27:51;100185.44;;;13.46;100.00
13080;BME280;6606;49.154;9.280;2024-02-14T12:30:44;100173.09;;;13.29;100.00
13080;BME280;6606;49.154;9.280;2024-02-14T12:33:27;100153.41;;;13.46;100.00
13080;BME280;6606;49.154;9.280;2024-02-14T12:36:10;100150.28;;;13.53;100.00
13080;BME280;6606;49.154;9.280;2024-02-14T12:38:52;100151.28;;;13.95;100.00
13080;BME280;6606;49.154;9.280;2024-02-14T12:41:34;100158.97;;;13.27;100.00
13080;BME280;6606;49.154;9.280;2024-02-14T12:44:25;100145.59;;;13.12;100.00
13080;BME280;6606;49.154;9.280;2024-02-14T12:47:07;100144.16;;;13.51;100.00
13080;BME280;6606;49.154;9.280;2024-02-14T12:50:04;100142.34;;;13.52;100.00
13080;BME280;6606;49.154;9.280;2024-02-14T12:52:49;100146.03;;;13.35;100.00
13080;BME280;6606;49.154;9.280;2024-02-14T12:55:31;100145.44;;;12.99;100.00
13080;BME280;6606;49.154;9.280;2024-02-14T12:58:19;100142.09;;;12.80;100.00
13080;BME280;6606;49.154;9.280;2024-02-14T13:01:02;100140.13;;;12.84;100.00
13080;BME280;6606;49.154;9.280;2024-02-14T13:03:46;100133.41;;;12.76;100.00
13080;BME280;6606;49.154;9.280;2024-02-14T13:06:27;100134.63;;;12.71;100.00
13080;BME280;6606;49.154;9.280;2024-02-14T13:09:09;100132.41;;;12.63;100.00
13080;BME280;6606;49.154;9.280;2024-02-14T13:11:51;100130.84;;;12.59;100.00
13080;BME280;6606;49.154;9.280;2024-02-14T13:14:33;100137.72;;;12.63;100.00
13080;BME280;6606;49.154;9.280;2024-02-14T13:17:16;100130.34;;;12.68;100.00
13080;BME280;6606;49.154;9.280;2024-02-14T13:19:58;100132.41;;;12.63;100.00
13080;BME280;6606;49.154;9.280;2024-02-14T13:22:40;100130.78;;;12.61;100.00
13080;BME280;6606;49.154;9.280;2024-02-14T13:25:22;100129.56;;;12.66;100.00
13080;BME280;6606;49.154;9.280;2024-02-14T13:28:04;100131.75;;;12.90;100.00
13080;BME280;6606;49.154;9.280;2024-02-14T13:30:46;100128.22;;;13.05;100.00
13080;BME280;6606;49.154;9.280;2024-02-14T13:33:30;100134.75;;;12.99;100.00
13080;BME280;6606;49.154;9.280;2024-02-14T13:36:12;100130.88;;;13.05;100.00
13080;BME280;6606;49.154;9.280;2024-02-14T13:38:55;100139.34;;;13.12;100.00
13080;BME280;6606;49.154;9.280;2024-02-14T13:41:37;100142.78;;;13.30;100.00
13080;BME280;6606;49.154;9.280;2024-02-14T13:44:19;100137.34;;;12.85;100.00
13080;BME280;6606;49.154;9.280;2024-02-14T13:47:01;100136.72;;;12.96;100.00
13080;BME280;6606;49.154;9.280;2024-02-14T13:49:44;100136.44;;;12.86;100.00
13080;BME280;6606;49.154;9.280;2024-02-14T13:52:26;100124.91;;;12.86;100.00
13080;BME280;6606;49.154;9.280;2024-02-14T13:55:08;100122.91;;;12.89;100.00
13080;BME280;6606;49.154;9.280;2024-02-14T13:57:50;100128.72;;;12.96;100.00
13080;BME280;6606;49.154;9.280;2024-02-14T14:00:32;100122.84;;;13.21;100.00
13080;BME280;6606;49.154;9.280;2024-02-14T14:03:33;100124.69;;;13.35;100.00
13080;BME280;6606;49.154;9.280;2024-02-14T14:06:18;100120.34;;;13.48;100.00
13080;BME280;6606;49.154;9.280;2024-02-14T14:09:00;100123.09;;;13.16;100.00
13080;BME280;6606;49.154;9.280;2024-02-14T14:11:43;100123.19;;;13.31;100.00
13080;BME280;6606;49.154;9.280;2024-02-14T14:14:28;100121.66;;;13.41;100.00
13080;BME280;6606;49.154;9.280;2024-02-14T14:17:10;100115.66;;;13.07;100.00
13080;BME280;6606;49.154;9.280;2024-02-14T14:19:53;100111.16;;;13.08;100.00